Time;durP1;ratioP1;P1;durP2;ratioP2;P2;SDS_P1;SDS_P2;PMS_P1;PMS_P2;Temp;Humidity;BMP_temperature;BMP_pressure;BME280_temperature;BME280_humidity;BME280_pressure;Samples;Min_cycle;Max_cycle;Signal;HPM_P1;HPM_P2
2022/06/15 00:00:57;;;;;;;2.95;1.30;;;;;;;20.57;33.73;99086.87;4485420;32;20101;-78
2022/06/15 00:03:23;;;;;;;4.22;1.25;;;;;;;20.56;33.36;99082.47;4486623;31;20444;-78
2022/06/15 00:05:49;;;;;;;4.05;1.30;;;;;;;20.56;33.86;99090.50;4485353;32;20140;-78
2022/06/15 00:08:15;;;;;;;3.78;1.10;;;;;;;20.60;33.86;99096.47;4486446;31;20126;-78
2022/06/15 00:10:41;;;;;;;4.20;1.23;;;;;;;20.57;33.85;99086.87;4486237;32;20081;-79
2022/06/15 00:13:08;;;;;;;3.15;1.37;;;;;;;20.48;33.92;99092.22;4485168;32;20360;-78
2022/06/15 00:15:33;;;;;;;3.58;1.25;;;;;;;20.41;33.54;99082.03;4485202;32;20444;-79
2022/06/15 00:17:59;;;;;;;5.28;1.40;;;;;;;20.43;33.11;99087.25;4486201;31;20075;-79
2022/06/15 00:20:24;;;;;;;2.95;1.10;;;;;;;20.47;33.38;99087.81;4486227;31;20088;-79
2022/06/15 00:22:50;;;;;;;4.18;1.30;;;;;;;20.46;33.48;99083.47;4486196;31;20099;-78
2022/06/15 00:25:15;;;;;;;3.33;1.20;;;;;;;20.40;33.08;99079.53;4485087;32;20100;-79
2022/06/15 00:27:41;;;;;;;4.65;1.40;;;;;;;20.37;32.95;99083.31;4486102;32;20076;-79
2022/06/15 00:30:07;;;;;;;5.70;1.40;;;;;;;20.37;33.21;99083.31;4486309;31;20113;-78
2022/06/15 00:32:33;;;;;;;4.15;1.23;;;;;;;20.39;33.16;99089.34;4485174;32;20101;-78
2022/06/15 00:34:58;;;;;;;4.95;1.30;;;;;;;20.39;32.81;99091.19;4486238;31;20098;-78
2022/06/15 00:37:24;;;;;;;5.40;1.40;;;;;;;20.37;33.04;99083.31;4486274;31;20112;-79
2022/06/15 00:39:49;;;;;;;6.07;1.20;;;;;;;20.41;33.08;99090.06;4486268;31;20085;-78
2022/06/15 00:42:15;;;;;;;1.42;1.00;;;;;;;20.39;33.40;99094.72;4486152;32;20140;-79
2022/06/15 00:44:42;;;;;;;3.55;1.15;;;;;;;20.45;33.40;99092.47;4485636;32;20129;-78
2022/06/15 00:47:17;;;;;;;2.72;1.27;;;;;;;20.48;33.55;99101.06;4488167;31;20124;-79
2022/06/15 00:49:49;;;;;;;4.70;1.55;;;;;;;20.41;34.41;99095.41;4487044;32;20160;-78
2022/06/15 00:52:18;;;;;;;5.50;1.50;;;;;;;20.26;34.68;99104.81;4486861;32;20138;-78
2022/06/15 00:54:46;;;;;;;3.00;1.35;;;;;;;20.27;34.70;99108.38;4487919;31;20107;-78
2022/06/15 00:57:12;;;;;;;4.07;1.30;;;;;;;20.22;35.34;99109.63;4488073;31;20145;-78
2022/06/15 00:59:59;;;;;;;4.37;1.30;;;;;;;20.17;35.65;99103.84;4486775;32;20155;-78
2022/06/15 01:02:26;;;;;;;8.25;1.83;;;;;;;20.14;36.10;99104.09;4488212;31;20095;-78
2022/06/15 01:04:58;;;;;;;5.35;1.70;;;;;;;19.99;37.01;99108.13;4487154;32;20080;-78
2022/06/15 01:07:29;;;;;;;7.07;1.65;;;;;;;19.94;37.49;99108.56;4473920;32;20073;-78
2022/06/15 01:10:28;;;;;;;4.15;1.48;;;;;;;19.94;37.58;99115.75;4487890;32;20153;-77
2022/06/15 01:13:02;;;;;;;4.70;1.30;;;;;;;19.86;37.96;99108.41;4479390;32;78582;-78
2022/06/15 01:15:33;;;;;;;5.00;1.65;;;;;;;19.87;37.84;99104.72;4487924;32;20440;-79
2022/06/15 01:18:08;;;;;;;4.15;1.25;;;;;;;19.88;38.16;99110.94;4487830;31;20068;-79
2022/06/15 01:20:55;;;;;;;5.80;1.62;;;;;;;19.89;38.38;99104.59;4487832;31;20081;-78
2022/06/15 01:23:34;;;;;;;5.35;1.62;;;;;;;19.87;38.36;99111.91;4486757;32;20729;-79
2022/06/15 01:26:24;;;;;;;5.10;1.67;;;;;;;19.81;38.32;99110.63;4486584;32;20435;-78
2022/06/15 01:29:03;;;;;;;4.95;1.60;;;;;;;19.79;38.45;99109.91;4486625;32;20103;-79
2022/06/15 01:31:58;;;;;;;;;;;;;;;19.75;38.64;99103.13;4488131;31;20076;-78
2022/06/15 01:34:59;;;;;;;4.55;1.30;;;;;;;19.80;38.86;99115.13;4474702;31;19984;-79
2022/06/15 01:37:30;;;;;;;6.10;1.62;;;;;;;19.74;38.99;99109.44;4410606;32;20101;-78
2022/06/15 01:40:02;;;;;;;6.40;1.80;;;;;;;19.67;38.84;99106.44;4423408;32;20085;-79
2022/06/15 01:42:34;;;;;;;5.37;1.50;;;;;;;19.67;38.78;99102.94;4410717;32;20144;-79
2022/06/15 01:45:03;;;;;;;4.85;1.40;;;;;;;19.65;38.65;99103.06;4410651;32;20819;-79
2022/06/15 01:47:31;;;;;;;5.62;1.48;;;;;;;19.61;38.74;99107.81;4410541;32;20097;-79
2022/06/15 01:50:04;;;;;;;4.80;1.33;;;;;;;19.62;38.74;99101.53;4423331;32;20139;-79
2022/06/15 01:52:33;;;;;;;4.85;1.42;;;;;;;19.61;38.39;99110.50;4410527;32;20094;-79
2022/06/15 01:55:03;;;;;;;4.68;1.58;;;;;;;19.59;38.24;99103.59;4410208;32;20086;-79
2022/06/15 01:57:29;;;;;;;5.93;1.40;;;;;;;19.59;38.20;99104.44;4410492;32;20201;-79
2022/06/15 01:59:59;;;;;;;5.55;1.50;;;;;;;19.60;38.25;99105.28;4410392;32;20132;-79
2022/06/15 02:02:27;;;;;;;5.47;1.48;;;;;;;19.58;38.04;99105.41;4410425;32;20481;-79
2022/06/15 02:04:59;;;;;;;4.72;1.60;;;;;;;19.55;37.96;99111.03;4423244;32;20102;-79
2022/06/15 02:07:42;;;;;;;5.20;1.60;;;;;;;19.54;38.05;99112.00;4423229;32;20565;-79
2022/06/15 02:10:30;;;;;;;6.03;1.60;;;;;;;19.57;38.00;99113.59;4423202;32;20467;-79
2022/06/15 02:13:14;;;;;;;4.95;1.50;;;;;;;19.59;38.12;99106.28;4454189;32;20097;-79
2022/06/15 02:15:42;;;;;;;6.45;1.50;;;;;;;19.55;38.34;99107.53;4487563;31;20115;-79
2022/06/15 02:18:10;;;;;;;4.18;1.33;;;;;;;19.55;38.33;99113.72;4486285;32;20104;-79
2022/06/15 02:20:39;;;;;;;4.93;1.40;;;;;;;19.56;38.32;99114.56;4486258;32;20534;-78
2022/06/15 02:23:08;;;;;;;4.80;1.40;;;;;;;19.54;38.15;99111.16;4486303;32;20579;-77
2022/06/15 02:25:39;;;;;;;5.32;1.42;;;;;;;19.56;38.04;99109.19;4486301;32;20103;-77
2022/06/15 02:28:05;;;;;;;3.60;1.25;;;;;;;19.49;38.01;99113.38;4473078;32;20092;-77
2022/06/15 02:30:31;;;;;;;6.30;1.42;;;;;;;19.54;37.95;99114.69;4473068;32;20333;-76
2022/06/15 02:33:03;;;;;;;5.07;1.55;;;;;;;19.55;37.87;99112.88;4472974;32;20127;-77
2022/06/15 02:35:28;;;;;;;3.62;1.17;;;;;;;19.56;37.95;99115.38;4487415;31;20586;-77
2022/06/15 02:37:54;;;;;;;3.72;1.48;;;;;;;19.57;38.00;99113.59;4487153;31;20150;-77
2022/06/15 02:40:22;;;;;;;5.05;1.50;;;;;;;19.60;37.94;99118.66;4487262;31;20126;-76
2022/06/15 02:42:47;;;;;;;;;;;;;;;19.63;37.83;99110.38;4486451;32;20157;-77
2022/06/15 02:45:28;;;;;;;4.70;1.70;;;;;;;19.73;37.84;99110.44;4486184;32;19988;-77
2022/06/15 02:47:54;;;;;;;3.35;1.40;;;;;;;19.72;37.84;99108.75;4486238;32;20076;-77
2022/06/15 02:50:20;;;;;;;5.47;1.50;;;;;;;19.70;38.06;99114.22;4486315;32;20130;-77
2022/06/15 02:53:00;;;;;;;4.57;1.35;;;;;;;19.72;38.28;99109.63;4486312;32;20097;-77
2022/06/15 02:55:26;;;;;;;2.58;1.17;;;;;;;19.78;38.18;99113.53;4486133;32;20104;-77
2022/06/15 02:58:01;;;;;;;6.37;1.50;;;;;;;19.78;38.04;99114.41;4486105;32;20106;-77
2022/06/15 03:00:27;;;;;;;4.18;1.20;;;;;;;19.82;38.18;99115.84;4485989;32;20125;-78
2022/06/15 03:02:52;;;;;;;4.72;1.42;;;;;;;19.82;38.09;99110.50;4485912;32;20464;-77
2022/06/15 03:05:18;;;;;;;3.97;1.60;;;;;;;19.88;38.01;99110.94;4487155;31;20081;-76
2022/06/15 03:07:44;;;;;;;5.07;1.58;;;;;;;19.93;37.95;99124.72;4485170;32;20086;-77
2022/06/15 03:10:09;;;;;;;5.65;1.40;;;;;;;19.96;37.72;99119.13;4486008;32;20367;-78
2022/06/15 03:12:35;;;;;;;3.97;1.42;;;;;;;20.00;37.63;99120.53;4487133;31;20081;-78
2022/06/15 03:15:00;;;;;;;4.10;1.20;;;;;;;20.07;37.58;99123.50;4486897;31;20103;-78
2022/06/15 03:17:26;;;;;;;3.95;1.40;;;;;;;20.11;37.44;99123.13;4486860;31;20133;-77
2022/06/15 03:19:51;;;;;;;3.87;1.30;;;;;;;20.19;37.24;99125.94;4486950;32;20064;-77
2022/06/15 03:22:17;;;;;;;5.43;1.30;;;;;;;20.25;37.16;99127.22;4485753;32;20492;-78
2022/06/15 03:24:42;;;;;;;4.97;1.50;;;;;;;20.34;37.03;99123.72;4485798;32;20089;-78
2022/06/15 03:27:07;;;;;;;5.15;1.40;;;;;;;20.42;37.02;99123.03;4486815;31;20317;-77
2022/06/15 03:29:33;;;;;;;4.80;1.62;;;;;;;20.51;36.91;99130.22;4486850;32;20100;-77
2022/06/15 03:31:58;;;;;;;4.40;1.65;;;;;;;20.58;36.84;99114.47;4486814;31;20380;-77
2022/06/15 03:34:24;;;;;;;4.57;1.45;;;;;;;20.66;36.96;99120.00;4486781;31;20173;-77
2022/06/15 03:36:49;;;;;;;6.22;1.45;;;;;;;20.76;36.71;99120.84;4486799;31;20136;-77
2022/06/15 03:39:16;;;;;;;5.32;1.60;;;;;;;20.84;36.88;99117.44;4486842;32;20129;-78
2022/06/15 03:41:41;;;;;;;3.80;1.45;;;;;;;20.93;36.95;99110.41;4485597;32;20171;-78
2022/06/15 03:44:07;;;;;;;5.90;1.50;;;;;;;21.04;36.88;99115.63;4486839;31;20084;-77
2022/06/15 03:46:32;;;;;;;3.83;1.50;;;;;;;21.12;36.86;99123.78;4486950;31;20117;-77
2022/06/15 03:48:58;;;;;;;4.03;1.62;;;;;;;21.20;36.90;99123.06;4486786;31;20095;-77
2022/06/15 03:51:23;;;;;;;5.03;1.33;;;;;;;21.30;36.74;99115.00;4486615;32;20111;-77
2022/06/15 03:53:49;;;;;;;5.43;1.60;;;;;;;21.36;36.53;99115.31;4486651;31;20103;-77
2022/06/15 03:56:14;;;;;;;5.05;1.60;;;;;;;21.48;36.36;99120.50;4486740;31;20406;-77
2022/06/15 03:58:39;;;;;;;3.97;1.70;;;;;;;21.62;36.42;99117.37;4486568;32;20076;-77
2022/06/15 04:01:05;;;;;;;6.60;1.62;;;;;;;21.75;36.38;99120.56;4485143;32;20097;-76
2022/06/15 04:03:30;;;;;;;4.40;1.60;;;;;;;21.84;36.37;99118.81;4486522;31;20084;-78
2022/06/15 04:05:57;;;;;;;6.37;1.77;;;;;;;21.94;36.55;99125.00;4486397;31;20212;-78
2022/06/15 04:08:34;;;;;;;5.95;1.75;;;;;;;22.05;36.80;99123.13;4486444;31;20130;-78
2022/06/15 04:11:03;;;;;;;4.82;1.67;;;;;;;22.12;37.51;99126.91;4486455;31;20164;-78
2022/06/15 04:13:29;;;;;;;193.48;14.63;;;;;;;22.23;37.38;99126.66;4486325;31;20103;-78
2022/06/15 04:15:54;;;;;;;7.62;2.10;;;;;;;22.36;36.73;99129.03;4486282;31;20112;-78
2022/06/15 04:18:21;;;;;;;6.70;1.58;;;;;;;22.52;37.74;99126.53;4486464;31;20080;-78
2022/06/15 04:20:46;;;;;;;5.55;1.60;;;;;;;22.65;37.66;99123.47;4487140;32;20737;-78
2022/06/15 04:23:16;;;;;;;5.87;1.50;;;;;;;22.79;37.27;99124.78;4488489;31;20084;-77
2022/06/15 04:25:51;;;;;;;6.45;1.70;;;;;;;22.86;37.14;99123.16;4487117;32;20171;-78
2022/06/15 04:28:19;;;;;;;4.50;1.62;;;;;;;22.89;37.29;99130.94;4487065;32;20077;-77
2022/06/15 04:30:44;;;;;;;5.25;1.60;;;;;;;23.08;37.06;99121.88;4487153;32;20124;-77
2022/06/15 04:33:10;;;;;;;4.12;1.70;;;;;;;23.17;36.92;99129.00;4488117;31;20149;-77
2022/06/15 04:35:36;;;;;;;4.03;1.73;;;;;;;23.34;36.62;99127.28;4487006;32;20356;-77
2022/06/15 04:38:02;;;;;;;6.45;1.62;;;;;;;23.38;35.72;99126.97;4488073;31;20072;-76
2022/06/15 04:40:28;;;;;;;5.62;1.80;;;;;;;23.52;35.92;99129.91;4486893;32;20149;-78
2022/06/15 04:42:53;;;;;;;4.10;1.52;;;;;;;23.58;35.79;99127.59;4486986;32;20400;-77
2022/06/15 04:45:19;;;;;;;5.10;1.58;;;;;;;23.79;35.04;99133.47;4488064;31;20110;-77
2022/06/15 04:47:44;;;;;;;12.48;1.90;;;;;;;23.95;35.03;99138.06;4473776;32;20140;-77
2022/06/15 04:50:13;;;;;;;5.82;1.60;;;;;;;24.05;35.23;99138.81;4488096;31;20060;-77
2022/06/15 04:52:43;;;;;;;3.55;1.50;;;;;;;24.20;34.94;99135.50;4488047;31;20157;-76
2022/06/15 04:55:11;;;;;;;7.40;1.90;;;;;;;24.23;33.70;99130.63;4488368;31;20872;-77
2022/06/15 04:57:37;;;;;;;5.97;1.75;;;;;;;24.33;34.71;99130.50;4487947;31;20085;-77
2022/06/15 05:00:05;;;;;;;4.35;1.60;;;;;;;24.48;34.73;99130.72;4486818;32;20108;-77
2022/06/15 05:02:31;;;;;;;5.37;1.33;;;;;;;24.46;34.82;99125.50;4488041;31;20140;-77
2022/06/15 05:04:59;;;;;;;6.07;1.70;;;;;;;24.65;34.26;99134.31;4487968;31;20365;-78
2022/06/15 05:07:25;;;;;;;4.45;1.60;;;;;;;24.73;33.77;99127.09;4488014;31;20549;-78
2022/06/15 05:09:51;;;;;;;4.68;1.48;;;;;;;24.88;33.74;99137.22;4487935;31;20088;-77
2022/06/15 05:12:17;;;;;;;9.38;1.83;;;;;;;25.00;33.34;99140.44;4487905;31;20115;-77
2022/06/15 05:14:46;;;;;;;7.60;1.55;;;;;;;25.06;31.39;99134.34;4487807;31;20147;-77
2022/06/15 05:17:11;;;;;;;8.23;1.70;;;;;;;25.18;30.31;99141.09;4487734;31;20102;-77
2022/06/15 05:19:37;;;;;;;6.03;1.42;;;;;;;25.35;29.82;99138.44;4487791;31;20096;-78
2022/06/15 05:22:03;;;;;;;7.25;1.55;;;;;;;25.39;29.96;99140.59;4487924;31;20085;-75
2022/06/15 05:24:28;;;;;;;6.95;2.03;;;;;;;25.56;30.47;99148.69;4488023;31;20454;-78
2022/06/15 05:26:54;;;;;;;5.53;1.45;;;;;;;25.51;29.87;99141.09;4488017;32;20076;-78
2022/06/15 05:29:19;;;;;;;5.60;1.58;;;;;;;25.59;28.78;99142.94;4487973;31;20088;-77
2022/06/15 05:31:45;;;;;;;5.80;1.90;;;;;;;25.59;29.11;99138.38;4472811;32;20127;-77
2022/06/15 05:34:10;;;;;;;5.30;1.60;;;;;;;25.67;29.53;99140.19;4487708;31;20076;-78
2022/06/15 05:36:36;;;;;;;7.47;1.80;;;;;;;25.62;29.31;99148.00;4487006;31;20355;-78
2022/06/15 05:39:03;;;;;;;4.55;1.67;;;;;;;25.82;29.39;99143.88;4486203;31;20143;-79
2022/06/15 05:41:29;;;;;;;5.45;1.73;;;;;;;25.84;29.94;99139.16;4486182;31;20198;-78
2022/06/15 05:46:43;;;;;;;8.95;2.45;;;;;;;26.12;27.86;99146.84;4457743;32;20122;-81
2022/06/15 05:49:08;;;;;;;6.35;1.83;;;;;;;26.12;28.06;99148.72;4469739;32;20121;-78
2022/06/15 05:51:34;;;;;;;4.87;1.60;;;;;;;26.18;27.67;99153.41;4456616;32;20120;-80
2022/06/15 05:53:59;;;;;;;7.43;1.80;;;;;;;26.18;27.41;99148.03;4469469;32;20108;-80
2022/06/15 05:56:25;;;;;;;7.85;1.87;;;;;;;26.31;27.00;99153.69;4469564;32;20119;-80
2022/06/15 05:58:50;;;;;;;7.35;2.10;;;;;;;26.40;26.76;99151.78;4469434;32;20162;-80
2022/06/15 06:01:24;;;;;;;7.45;1.70;;;;;;;26.50;26.62;99155.09;4466325;32;20400;-78
2022/06/15 06:03:50;;;;;;;4.95;1.70;;;;;;;26.58;26.75;99159.62;4460721;32;20085;-80
2022/06/15 06:06:16;;;;;;;5.50;1.80;;;;;;;26.54;26.25;99161.00;4459722;32;20157;-78
2022/06/15 06:08:41;;;;;;;7.95;1.70;;;;;;;26.42;26.88;99155.16;4462007;32;20242;-79
2022/06/15 06:11:06;;;;;;;11.27;1.90;;;;;;;26.45;26.60;99163.75;4461736;32;20112;-80
2022/06/15 06:13:32;;;;;;;4.72;1.73;;;;;;;26.45;26.66;99162.91;4457824;32;20183;-81
2022/06/15 06:15:57;;;;;;;10.43;1.75;;;;;;;26.56;26.45;99164.34;4458180;32;20478;-79
2022/06/15 06:18:23;;;;;;;9.60;1.83;;;;;;;26.57;26.69;99164.19;4461391;32;20132;-81
2022/06/15 06:20:49;;;;;;;7.03;1.77;;;;;;;26.72;25.90;99169.72;4460972;32;20096;-80
2022/06/15 06:23:15;;;;;;;6.35;1.70;;;;;;;26.82;25.65;99166.78;4462926;31;20131;-79
2022/06/15 06:25:42;;;;;;;6.85;1.40;;;;;;;26.87;25.74;99169.78;4493014;31;20111;-79
2022/06/15 06:28:20;;;;;;;;;;;;;;;26.78;25.38;99170.87;4470613;31;20143;-79
2022/06/15 06:30:45;;;;;;;5.18;1.65;;;;;;;26.68;25.75;99173.78;4483393;31;19991;-80
2022/06/15 06:33:11;;;;;;;6.95;1.83;;;;;;;26.61;26.14;99172.81;4482631;31;20374;-80
2022/06/15 06:35:36;;;;;;;5.03;1.58;;;;;;;26.64;26.41;99173.31;4494617;31;20388;-79
2022/06/15 06:38:02;;;;;;;9.60;1.90;;;;;;;26.60;26.36;99173.84;4492893;31;20452;-79
2022/06/15 06:40:28;;;;;;;8.85;1.70;;;;;;;26.62;26.58;99171.81;4495063;31;20100;-78
2022/06/15 06:42:53;;;;;;;17.08;2.80;;;;;;;26.70;26.34;99174.47;4482857;31;20422;-80
2022/06/15 06:45:18;;;;;;;7.50;1.60;;;;;;;26.62;27.29;99169.09;4495220;31;20128;-80
2022/06/15 06:47:44;;;;;;;8.48;1.83;;;;;;;26.77;26.73;99171.88;4492633;31;20104;-80
2022/06/15 06:50:09;;;;;;;7.40;1.62;;;;;;;26.88;25.99;99177.69;4494622;31;20115;-79
2022/06/15 06:52:35;;;;;;;5.97;1.80;;;;;;;26.79;26.06;99178.78;4495143;31;20100;-80
2022/06/15 06:55:00;;;;;;;7.10;1.80;;;;;;;26.88;26.10;99175.00;4493160;31;20106;-79
2022/06/15 06:57:26;;;;;;;5.62;1.70;;;;;;;26.98;25.77;99166.66;4486717;31;20415;-81
2022/06/15 06:59:52;;;;;;;7.90;1.83;;;;;;;27.18;25.58;99172.44;4500898;31;20083;-81
2022/06/15 07:02:17;;;;;;;19.02;2.67;;;;;;;27.24;25.80;99176.28;4488072;31;20187;-80
2022/06/15 07:04:43;;;;;;;8.52;1.80;;;;;;;27.27;25.51;99170.50;4502929;31;20131;-81
2022/06/15 07:07:08;;;;;;;9.20;2.00;;;;;;;27.31;25.32;99184.53;4502848;31;20110;-80
2022/06/15 07:09:34;;;;;;;4.28;1.62;;;;;;;27.26;24.88;99174.25;4502927;31;20088;-81
2022/06/15 07:12:00;;;;;;;7.18;1.85;;;;;;;27.32;25.00;99184.34;4501684;31;20084;-81
2022/06/15 07:14:25;;;;;;;4.85;1.58;;;;;;;27.38;25.13;99180.06;4502611;31;20088;-81
2022/06/15 07:16:50;;;;;;;6.78;1.80;;;;;;;27.52;24.68;99178.41;4494446;31;20115;-82
2022/06/15 07:19:16;;;;;;;9.50;1.90;;;;;;;27.51;24.66;99177.59;4490759;31;20080;-80
2022/06/15 07:21:41;;;;;;;6.87;1.80;;;;;;;27.57;24.86;99170.59;4497616;31;20080;-80
2022/06/15 07:24:08;;;;;;;8.10;2.20;;;;;;;27.62;24.92;99177.16;4486835;31;20080;-80
2022/06/15 07:26:42;;;;;;;12.20;2.50;;;;;;;27.70;24.76;99183.47;4484347;32;20097;-81
2022/06/15 07:29:11;;;;;;;6.25;1.73;;;;;;;27.73;25.12;99181.25;4486984;31;20111;-81
2022/06/15 07:31:38;;;;;;;8.20;2.03;;;;;;;27.67;24.93;99176.59;4486045;31;20088;-81
2022/06/15 07:34:04;;;;;;;6.07;1.95;;;;;;;27.67;24.97;99182.00;4486048;31;20110;-83
2022/06/15 07:36:30;;;;;;;7.87;1.90;;;;;;;27.60;25.04;99176.50;4486162;31;20145;-83
2022/06/15 07:38:57;;;;;;;6.97;1.80;;;;;;;27.54;24.28;99179.91;4486752;31;20366;-83
2022/06/15 07:41:24;;;;;;;10.25;2.00;;;;;;;27.28;24.53;99182.19;4485527;32;20072;-82
2022/06/15 07:43:50;;;;;;;7.60;2.03;;;;;;;27.08;25.22;99174.50;4486767;31;20080;-83
2022/06/15 07:46:16;;;;;;;5.57;1.55;;;;;;;27.21;25.01;99176.63;4486726;31;20119;-83
2022/06/15 07:51:36;;;;;;;7.12;1.80;;;;;;;27.29;25.88;99173.03;4485756;32;20144;-83
2022/06/15 07:54:04;;;;;;;6.10;1.77;;;;;;;27.34;25.23;99173.34;4486276;31;20069;-83
2022/06/15 07:56:30;;;;;;;5.47;1.70;;;;;;;27.48;25.67;99174.41;4486867;32;20496;-83
2022/06/15 07:58:56;;;;;;;7.03;1.90;;;;;;;27.38;24.91;99172.78;4485443;32;20100;-83
2022/06/15 08:01:22;;;;;;;6.65;1.80;;;;;;;27.42;24.47;99174.09;4486521;32;20152;-83
2022/06/15 08:03:48;;;;;;;5.65;2.03;;;;;;;27.24;24.74;99173.56;4486585;32;20137;-83
2022/06/15 08:06:14;;;;;;;5.68;1.73;;;;;;;27.18;24.83;99177.84;4486432;31;20092;-83
2022/06/15 08:08:40;;;;;;;4.35;1.48;;;;;;;27.20;24.83;99175.78;4486438;31;20111;-83
2022/06/15 08:11:05;;;;;;;14.52;2.33;;;;;;;27.42;24.42;99168.69;4486482;31;20084;-83
2022/06/15 08:13:31;;;;;;;5.40;1.73;;;;;;;27.36;24.39;99165.88;4486348;31;20136;-83
2022/06/15 08:15:57;;;;;;;6.55;1.65;;;;;;;27.34;24.39;99168.78;4486348;32;20433;-83
2022/06/15 08:18:26;;;;;;;4.85;1.67;;;;;;;27.45;24.27;99159.38;4485121;32;20122;-83
2022/06/15 08:20:55;;;;;;;6.00;1.70;;;;;;;27.26;24.58;99171.56;4486239;31;20447;-83
2022/06/15 08:23:22;;;;;;;5.47;1.70;;;;;;;27.29;23.84;99167.63;4486352;31;20148;-83
2022/06/15 08:25:55;;;;;;;5.85;1.70;;;;;;;27.10;24.00;99171.63;4485077;32;20104;-83
2022/06/15 08:28:24;;;;;;;7.37;1.77;;;;;;;27.04;24.03;99173.19;4486286;31;20744;-83
2022/06/15 08:30:51;;;;;;;6.65;1.67;;;;;;;26.91;24.30;99165.72;4484941;32;20077;-82
2022/06/15 08:33:17;;;;;;;7.53;1.87;;;;;;;26.82;24.24;99173.00;4486092;31;20072;-83
2022/06/15 08:35:43;;;;;;;6.37;1.60;;;;;;;26.86;24.21;99171.63;4486094;31;20100;-83
2022/06/15 08:38:11;;;;;;;165.37;12.98;;;;;;;26.93;24.39;99163.66;4486016;32;20432;-83
2022/06/15 08:40:53;;;;;;;6.30;1.70;;;;;;;26.91;23.83;99170.25;4486034;31;20106;-82
2022/06/15 08:43:33;;;;;;;6.68;1.92;;;;;;;26.69;24.17;99180.88;4485950;31;20068;-83
2022/06/15 08:46:08;;;;;;;6.53;2.10;;;;;;;26.64;24.87;99172.47;4485924;32;20110;-83
2022/06/15 08:48:58;;;;;;;9.05;1.90;;;;;;;26.66;24.87;99170.44;4485032;32;20118;-83
2022/06/15 08:51:41;;;;;;;6.97;1.65;;;;;;;26.73;24.79;99162.44;4485697;32;20360;-82
2022/06/15 08:54:29;;;;;;;13.45;2.30;;;;;;;26.92;24.56;99161.13;4485627;31;20122;-83
2022/06/15 08:57:31;;;;;;;5.30;1.70;;;;;;;26.96;24.37;99155.16;4485430;31;20119;-82
2022/06/15 09:00:09;;;;;;;5.18;1.60;;;;;;;27.11;23.80;99160.66;4484612;32;20124;-82
2022/06/15 09:02:50;;;;;;;13.40;1.98;;;;;;;27.22;24.16;99164.78;4485709;31;20435;-83
2022/06/15 09:05:16;;;;;;;4.95;1.70;;;;;;;27.32;24.82;99156.47;4485874;31;20084;-83
2022/06/15 09:08:11;;;;;;;6.70;1.50;;;;;;;27.07;24.75;99154.75;4488013;31;20341;-83
2022/06/15 09:10:57;;;;;;;8.48;1.70;;;;;;;27.38;23.84;99155.72;4473987;31;20452;-82
2022/06/15 09:13:41;;;;;;;4.07;1.60;;;;;;;27.38;23.44;99159.25;4487761;31;20465;-83
2022/06/15 09:16:20;;;;;;;5.35;1.85;;;;;;;27.22;23.12;99160.22;4487877;32;20081;-83
2022/06/15 09:18:53;;;;;;;16.90;2.97;;;;;;;27.15;23.27;99153.84;4486830;32;20096;-82
2022/06/15 09:21:26;;;;;;;11.38;1.95;;;;;;;26.85;23.81;99161.03;4486875;32;20096;-83
2022/06/15 09:23:56;;;;;;;8.25;1.65;;;;;;;26.85;24.19;99144.81;4486666;32;20080;-83
2022/06/15 09:26:28;;;;;;;6.53;1.70;;;;;;;26.93;24.82;99139.34;4486443;32;20081;-82
2022/06/15 09:28:56;;;;;;;3.53;1.65;;;;;;;27.07;25.17;99151.22;4486436;32;20104;-82
2022/06/15 09:31:26;;;;;;;5.82;1.62;;;;;;;27.05;24.98;99143.28;4487840;31;20140;-83
2022/06/15 09:34:01;;;;;;;6.03;1.52;;;;;;;27.08;23.29;99158.28;4486488;32;20080;-83
2022/06/15 09:36:33;;;;;;;7.20;1.65;;;;;;;27.07;22.90;99143.94;4486561;32;20103;-82
2022/06/15 09:38:58;;;;;;;3.70;1.40;;;;;;;26.99;23.25;99149.41;4487751;31;20092;-82
2022/06/15 09:41:30;;;;;;;7.22;1.60;;;;;;;26.96;23.49;99151.62;4487820;31;20089;-83
2022/06/15 09:44:13;;;;;;;6.57;1.67;;;;;;;26.99;23.79;99141.31;4487697;31;20575;-82
2022/06/15 09:46:56;;;;;;;6.80;2.00;;;;;;;26.93;25.08;99144.75;4473188;32;20084;-83
2022/06/15 09:49:46;;;;;;;12.77;2.17;;;;;;;27.00;24.55;99139.44;4486570;32;20479;-83
2022/06/15 09:52:54;;;;;;;5.68;1.60;;;;;;;27.02;24.08;99130.13;4487632;32;20106;-82
2022/06/15 09:55:34;;;;;;;5.05;1.60;;;;;;;26.86;24.75;99136.50;4487871;31;20084;-82
2022/06/15 09:58:00;;;;;;;4.47;1.55;;;;;;;26.94;24.57;99132.06;4486307;32;20459;-83
2022/06/15 10:00:25;;;;;;;5.70;1.73;;;;;;;26.90;24.93;99131.56;4486265;32;20138;-82
2022/06/15 10:02:59;;;;;;;6.45;1.80;;;;;;;26.88;24.59;99128.22;4487570;31;20452;-83
2022/06/15 10:05:28;;;;;;;4.47;1.67;;;;;;;26.93;24.83;99124.97;4487464;31;20080;-83
2022/06/15 10:07:55;;;;;;;5.95;1.70;;;;;;;26.85;25.25;99120.47;4486290;32;20192;-83
2022/06/15 10:10:26;;;;;;;5.70;1.60;;;;;;;26.92;25.41;99116.00;4473364;32;20488;-82
2022/06/15 10:12:59;;;;;;;6.82;1.90;;;;;;;27.02;24.76;99118.47;4487428;31;20196;-82
2022/06/15 10:15:40;;;;;;;4.68;1.50;;;;;;;26.98;24.39;99114.44;4487618;31;20076;-82
2022/06/15 10:18:31;;;;;;;5.30;1.70;;;;;;;26.93;24.69;99117.69;4487220;31;20072;-82
2022/06/15 10:21:14;;;;;;;5.28;1.77;;;;;;;26.94;24.79;99107.72;4486412;32;20093;-82
2022/06/15 10:24:01;;;;;;;7.43;1.77;;;;;;;26.85;25.03;99109.66;4487422;31;20197;-82
2022/06/15 10:26:32;;;;;;;8.98;2.08;;;;;;;26.88;25.32;99115.53;4487556;31;20140;-83
2022/06/15 10:29:22;;;;;;;7.70;2.20;;;;;;;27.02;25.27;99116.63;4487309;31;20080;-83
2022/06/15 10:32:00;;;;;;;11.15;2.25;;;;;;;27.01;25.12;99109.53;4487402;31;20123;-83
2022/06/15 10:34:27;;;;;;;8.80;2.10;;;;;;;27.01;24.60;99108.69;4487327;31;20072;-82
2022/06/15 10:36:55;;;;;;;8.05;2.10;;;;;;;27.10;24.18;99104.03;4487387;31;20150;-83
2022/06/15 10:39:26;;;;;;;10.93;2.10;;;;;;;27.18;24.24;99101.28;4487263;31;20088;-82
2022/06/15 10:41:51;;;;;;;5.97;2.10;;;;;;;27.07;24.57;99106.06;4486105;32;20100;-83
2022/06/15 10:44:27;;;;;;;5.65;1.90;;;;;;;27.17;24.94;99096.88;4487315;31;20408;-82
2022/06/15 10:46:58;;;;;;;6.53;1.87;;;;;;;27.23;24.63;99096.97;4487254;31;20143;-82
2022/06/15 10:49:24;;;;;;;7.72;2.05;;;;;;;27.25;24.70;99092.28;4487303;31;20092;-83
2022/06/15 10:51:50;;;;;;;11.02;2.92;;;;;;;27.16;24.70;99095.19;4486010;32;20487;-83
2022/06/15 10:54:21;;;;;;;7.65;2.05;;;;;;;27.26;24.53;99091.25;4485945;32;20115;-83
2022/06/15 11:02:37;;;;;;;5.85;1.80;;;;;;;27.27;24.54;99089.38;4487198;32;20918;-82
2022/06/15 11:05:13;;;;;;;12.73;2.30;;;;;;;27.21;24.80;99087.37;4486281;32;20153;-83
2022/06/15 11:07:45;;;;;;;9.52;1.90;;;;;;;27.33;25.35;99085.09;4487177;31;20099;-82
2022/06/15 11:10:20;;;;;;;7.70;2.00;;;;;;;27.37;25.02;99087.25;4487159;31;20068;-82
2022/06/15 11:12:52;;;;;;;7.75;2.10;;;;;;;27.52;24.92;99081.00;4485926;32;20236;-82
2022/06/15 11:15:17;;;;;;;5.80;1.73;;;;;;;27.37;24.28;99075.56;4487380;31;20092;-82
2022/06/15 11:18:06;;;;;;;6.80;1.92;;;;;;;27.31;24.22;99069.03;4486843;31;20140;-83
2022/06/15 11:20:46;;;;;;;5.47;1.80;;;;;;;27.23;24.80;99069.91;4486168;32;20095;-82
2022/06/15 11:23:27;;;;;;;6.62;1.87;;;;;;;27.36;25.20;99073.91;4487016;31;20080;-82
2022/06/15 11:26:02;;;;;;;20.70;2.72;;;;;;;27.42;25.03;99068.59;4487008;31;20161;-82
2022/06/15 11:28:36;;;;;;;9.35;3.08;;;;;;;27.43;25.50;99072.97;4485013;32;20117;-82
2022/06/15 11:31:11;;;;;;;7.25;1.90;;;;;;;27.65;25.96;99060.38;4485682;32;20085;-82
2022/06/15 11:33:47;;;;;;;7.37;2.17;;;;;;;27.77;25.16;99054.50;4485670;32;20096;-82
2022/06/15 11:36:53;;;;;;;6.43;2.00;;;;;;;27.84;25.20;99060.84;4485748;32;20096;-82
2022/06/15 11:39:34;;;;;;;11.57;3.30;;;;;;;28.04;25.31;99050.28;4486979;31;20155;-82
2022/06/15 11:42:00;;;;;;;16.77;3.37;;;;;;;28.19;25.26;99056.50;4485925;32;20088;-82
2022/06/15 11:44:32;;;;;;;6.75;1.92;;;;;;;28.39;25.12;99047.75;4485889;32;20131;-83
2022/06/15 11:47:19;;;;;;;7.37;2.17;;;;;;;28.38;24.75;99054.22;4485562;32;20131;-83
2022/06/15 11:49:47;;;;;;;7.65;1.98;;;;;;;28.52;24.76;99050.63;4486998;31;20403;-82
2022/06/15 11:52:40;;;;;;;5.40;1.80;;;;;;;28.54;24.50;99045.03;4486731;31;20104;-83
2022/06/15 11:55:29;;;;;;;7.70;2.00;;;;;;;28.59;24.91;99045.28;4486705;31;20384;-83
2022/06/15 11:58:22;;;;;;;11.38;2.20;;;;;;;28.59;24.50;99048.00;4486693;31;20113;-82
2022/06/15 12:00:59;;;;;;;18.08;2.22;;;;;;;28.68;23.85;99049.53;4486861;32;20148;-83